Chattanooga, TN (37416)

8:36 PM EDT on August 16, 2017 (GMT -0400)
Lake Shore Heights ,South Harrison | | Change Station

Elev 787 ft 35.13 °N, 85.16 °W | Updated 1 second ago

Partly Cloudy
Partly Cloudy
83.4 °F
Feels Like 94 °F
N
0.0
Wind Variable Wind from SE
Gusts 0.0 mph

Today
High -- | Low -- °F
--% Chance of Precip.
Yesterday
High -- | Low -- °F
Precip. -- in
Pressure 29.98 in
Visibility 10.0 miles
Clouds Scattered Clouds 5000 ft
Scattered Clouds 20000 ft
Scattered Clouds 25000 ft
Heat Index 94 °F
Dew Point 78 °F
Humidity 84%
Rainfall 0.00 in
Snow Depth Not available.
7:01 AM 8:27 PM
Waning Crescent, 28% visible
METAR KCHA 162353Z 24006KT 10SM SCT050 SCT200 SCT250 32/22 A3001 RMK AO2 LTG DSNT NW SLP152 CB DSNT NW T03170222 10339 20317 53005 $
Pressure 29.98 in
Visibility 10.0 miles
Clouds Scattered Clouds 5000 ft
Scattered Clouds 20000 ft
Scattered Clouds 25000 ft
Heat Index 94 °F
Dew Point 78 °F
Humidity 84%
Rainfall 0.00 in
Snow Depth Not available.
7:01 AM 8:27 PM
Waning Crescent, 28% visible
METAR KCHA 162353Z 24006KT 10SM SCT050 SCT200 SCT250 32/22 A3001 RMK AO2 LTG DSNT NW SLP152 CB DSNT NW T03170222 10339 20317 53005 $

Get Severe Weather Alerts

Thanks for signing up!

Be on the lookout for a verification email in your inbox.

You'll start receiving the daily forecast at 6 AM.

×

10-Day Weather Forecast

Almanac

Astronomy

Aug. 16, 2017 Rise Set
Actual Time
Civil Twilight
Nautical Twilight
Astronomical Twilight
Moon
Length of Visible Light
Length of Day
Tomorrow will be .
, % of the Moon is Illuminated

Today's Extremes

State Highs State Lows

Community

WunderPhotos

Category 6

Welcome to Category 6. This is the collective home for Weather Underground's featured writeups by Dr. Jeff Masters (right), Bob Henson (left), Chris Burt, and other regular contributors.

Nearby

Air Quality

  Air Quality AQ Index Pollutant
Not available.

Snow Depth

Station Depth Elevation

Earthquake Activity

City Distance Mag. Time & Date
Minimum magnitude displayed is 2.5.

Coastal Water Temperatures

Place Temperature

Stations

Nearby Weather Stations

Station Location Temp. Windchill Dew Point Humidity Wind Precip. Elev Updated Type
                   

Watches & Warnings

There are currently no watches in effect.